Terminal Aerodrome Forecast
Issued by NWS

Home | Current Version | Previous Version | Text Only | Print | Product List | Glossary On
Versions: 1 2 3 4 5 6 7 8 9 10 11 12 13 14 15 16 17 18 19
720
FTAK31 PAJN 281738
TAFAYA
TAF
PAYA 281738Z 2818/2918 16006KT P6SM VCSH SCT015 BKN035 OVC045
      TEMPO 2818/2821 5SM -SHRA BR BKN015 OVC030
     FM282100 14009KT P6SM -SHRA BKN025 OVC035
     FM290300 11007KT 5SM -SHRA BR SCT007 OVC015
     FM290900 09003KT 3SM BR BKN006 OVC012
     FM291600 08004KT P6SM SCT008 BKN018 OVC035
      AMD LTD TO CLD VIS AND WIND 2901/2909=

USA.gov is the U.S. government's official web portal to all federal, state and local government web resources and services.